Time;durP1;ratioP1;P1;durP2;ratioP2;P2;SDS_P1;SDS_P2;PMS_P1;PMS_P2;Temp;Humidity;BMP_temperature;BMP_pressure;BME280_temperature;BME280_humidity;BME280_pressure;Samples;Min_cycle;Max_cycle;Signal;HPM_P1;HPM_P2
2022/03/24 00:01:24;;;;;;;86.72;43.17;;;2.80;99.90;;;;;;5035095;28;20083;-78
2022/03/24 00:03:49;;;;;;;91.90;43.25;;;2.80;99.90;;;;;;5032905;28;20095;-78
2022/03/24 00:06:15;;;;;;;88.63;43.30;;;2.70;99.90;;;;;;5019494;28;20048;-78
2022/03/24 00:08:40;;;;;;;82.88;42.70;;;2.90;99.90;;;;;;5034120;28;20133;-78
2022/03/24 00:11:06;;;;;;;82.43;40.42;;;2.60;99.90;;;;;;5034374;28;20041;-78
2022/03/24 00:13:31;;;;;;;84.85;41.90;;;2.70;99.90;;;;;;5034655;28;20048;-78
2022/03/24 00:15:58;;;;;;;85.03;42.58;;;2.70;99.90;;;;;;5033530;28;20455;-78
2022/03/24 00:18:24;;;;;;;91.30;44.42;;;2.70;99.90;;;;;;5014752;28;20408;-78
2022/03/24 00:20:49;;;;;;;107.53;48.70;;;2.70;99.90;;;;;;5013061;28;20046;-77
2022/03/24 00:23:15;;;;;;;97.50;45.35;;;2.80;99.90;;;;;;5013556;28;20061;-78
2022/03/24 00:25:41;;;;;;;112.75;50.60;;;2.80;99.90;;;;;;5012894;28;20049;-78
2022/03/24 00:28:07;;;;;;;105.68;51.80;;;3.10;99.90;;;;;;5015924;28;20049;-77
2022/03/24 00:30:32;;;;;;;128.98;59.10;;;3.20;99.90;;;;;;5014804;28;20495;-77
2022/03/24 00:32:58;;;;;;;126.00;58.97;;;3.30;99.90;;;;;;5014735;28;20046;-78
2022/03/24 00:35:24;;;;;;;120.65;59.65;;;3.30;99.90;;;;;;5032053;28;20049;-79
2022/03/24 00:37:50;;;;;;;125.40;56.97;;;3.50;99.90;;;;;;5018650;28;20046;-78
2022/03/24 00:40:17;;;;;;;116.97;57.30;;;3.60;99.90;;;;;;5013113;28;20053;-78
2022/03/24 00:42:44;;;;;;;128.35;59.90;;;3.60;99.90;;;;;;5014839;28;20081;-79
2022/03/24 00:45:12;;;;;;;122.90;58.10;;;3.50;99.90;;;;;;5014721;28;20050;-79
2022/03/24 00:47:38;;;;;;;129.00;62.15;;;3.40;99.90;;;;;;5027495;28;20037;-78
2022/03/24 00:50:05;;;;;;;123.15;59.38;;;3.20;99.90;;;;;;5034089;28;20045;-79
2022/03/24 00:52:30;;;;;;;108.05;53.85;;;3.10;99.90;;;;;;5034395;28;20162;-78
2022/03/24 00:54:56;;;;;;;121.18;55.28;;;3.20;99.90;;;;;;5020325;28;20061;-78
2022/03/24 00:57:22;;;;;;;119.43;58.47;;;2.80;99.90;;;;;;5014828;28;20049;-78
2022/03/24 00:59:47;;;;;;;125.65;55.60;;;2.80;99.90;;;;;;5013207;28;20038;-78
2022/03/24 01:02:14;;;;;;;104.05;49.58;;;2.70;99.90;;;;;;5013197;28;20053;-77
2022/03/24 01:04:41;;;;;;;122.60;55.65;;;2.60;99.90;;;;;;5014297;28;20469;-78
2022/03/24 01:07:07;;;;;;;118.55;52.63;;;3.10;99.90;;;;;;5013462;28;20077;-78
2022/03/24 01:09:33;;;;;;;105.20;50.65;;;2.50;99.90;;;;;;5013727;28;20080;-77
2022/03/24 01:11:58;;;;;;;110.72;53.05;;;2.30;99.90;;;;;;5013947;28;20049;-78
2022/03/24 01:14:25;;;;;;;109.25;52.13;;;2.20;99.90;;;;;;5022231;28;20128;-78
2022/03/24 01:16:51;;;;;;;117.28;51.28;;;2.20;99.90;;;;;;5021557;28;20045;-78
2022/03/24 01:19:17;;;;;;;114.43;54.53;;;2.10;99.90;;;;;;5013988;28;20046;-78
2022/03/24 01:21:43;;;;;;;120.45;54.05;;;2.10;99.90;;;;;;5013766;28;20046;-78
2022/03/24 01:24:09;;;;;;;115.50;52.70;;;2.00;99.90;;;;;;5019964;28;20450;-78
2022/03/24 01:26:36;;;;;;;109.78;50.00;;;2.00;99.90;;;;;;5031891;28;20044;-77
2022/03/24 01:29:02;;;;;;;110.45;49.95;;;1.90;99.90;;;;;;5033597;28;20060;-77
2022/03/24 01:31:28;;;;;;;114.03;52.58;;;1.90;99.90;;;;;;5032856;28;20037;-78
2022/03/24 01:33:54;;;;;;;114.28;51.33;;;1.80;99.90;;;;;;5024779;28;20053;-78
2022/03/24 01:36:20;;;;;;;114.10;52.65;;;1.90;99.90;;;;;;5019522;28;20094;-77
2022/03/24 01:38:46;;;;;;;122.97;51.92;;;1.80;99.90;;;;;;5032182;28;20049;-78
2022/03/24 01:41:12;;;;;;;116.93;53.85;;;1.80;99.90;;;;;;5032357;28;20042;-78
2022/03/24 01:43:37;;;;;;;125.88;55.83;;;1.70;99.90;;;;;;5026545;28;20045;-78
2022/03/24 01:46:04;;;;;;;116.10;50.67;;;1.70;99.90;;;;;;5011826;28;20108;-77
2022/03/24 01:48:30;;;;;;;120.70;51.55;;;1.60;99.90;;;;;;5013393;28;20046;-77
2022/03/24 01:50:56;;;;;;;126.55;54.60;;;1.60;99.90;;;;;;4996180;28;20044;-78
2022/03/24 01:53:22;;;;;;;120.43;52.75;;;1.50;99.90;;;;;;5014087;28;20108;-77
2022/03/24 01:55:49;;;;;;;130.85;56.83;;;1.50;99.90;;;;;;5013593;28;20492;-78
2022/03/24 01:58:15;;;;;;;117.03;53.25;;;1.50;99.90;;;;;;5031801;28;20129;-78
2022/03/24 02:00:43;;;;;;;131.35;53.67;;;1.40;99.90;;;;;;5033074;28;20080;-78
2022/03/24 02:03:08;;;;;;;125.97;54.58;;;1.40;99.90;;;;;;5031848;28;20045;-78
2022/03/24 02:05:36;;;;;;;126.45;53.05;;;1.50;99.90;;;;;;5032550;28;20141;-79
2022/03/24 02:08:03;;;;;;;120.90;53.75;;;1.40;99.90;;;;;;5031909;28;20484;-78
2022/03/24 02:10:33;;;;;;;124.35;53.67;;;1.40;99.90;;;;;;5032778;28;20057;-78
2022/03/24 02:12:59;;;;;;;141.98;57.78;;;1.30;99.90;;;;;;5014825;28;20133;-78
2022/03/24 02:15:26;;;;;;;129.13;56.83;;;1.30;99.90;;;;;;5028544;28;20038;-78
2022/03/24 02:17:53;;;;;;;137.45;54.88;;;1.30;99.90;;;;;;5011787;28;20046;-77
2022/03/24 02:20:22;;;;;;;140.50;56.70;;;1.30;99.90;;;;;;5013049;28;20049;-77
2022/03/24 02:22:48;;;;;;;136.50;56.63;;;1.20;99.90;;;;;;5013067;28;20053;-77
2022/03/24 02:25:14;;;;;;;143.27;58.33;;;1.80;99.90;;;;;;5012776;28;20555;-78
2022/03/24 02:27:40;;;;;;;167.55;64.47;;;1.20;99.90;;;;;;5011340;28;20046;-78
2022/03/24 02:30:07;;;;;;;175.25;68.47;;;1.20;99.90;;;;;;5012869;28;20097;-78
2022/03/24 02:32:33;;;;;;;155.73;63.03;;;1.20;99.90;;;;;;5013133;28;20140;-77
2022/03/24 02:34:59;;;;;;;164.30;63.83;;;1.20;99.90;;;;;;5029522;28;20120;-77
2022/03/24 02:37:25;;;;;;;160.63;63.13;;;1.20;99.90;;;;;;5014810;28;20073;-78
2022/03/24 02:39:59;;;;;;;154.63;60.60;;;1.60;99.90;;;;;;5031250;28;20046;-78
2022/03/24 02:42:30;;;;;;;154.07;61.67;;;1.20;99.90;;;;;;5123079;22;20069;-82
2022/03/24 02:45:00;;;;;;;155.52;61.95;;;1.20;99.90;;;;;;5040184;28;20069;-82
2022/03/24 02:47:27;;;;;;;148.70;59.08;;;1.30;99.90;;;;;;5050716;28;20060;-82
2022/03/24 02:49:54;;;;;;;173.95;62.75;;;1.30;99.90;;;;;;5049933;28;20069;-82
2022/03/24 02:52:20;;;;;;;173.07;65.10;;;1.30;99.90;;;;;;5036554;28;20045;-82
2022/03/24 02:54:46;;;;;;;163.07;62.40;;;1.20;99.90;;;;;;5046135;28;20125;-82
2022/03/24 02:57:12;;;;;;;160.45;63.53;;;1.10;99.90;;;;;;5031029;28;20042;-82
2022/03/24 02:59:39;;;;;;;161.88;61.33;;;1.00;99.90;;;;;;5030971;28;20410;-82
2022/03/24 03:02:07;;;;;;;165.73;63.65;;;1.00;99.90;;;;;;5030658;28;20053;-82
2022/03/24 03:04:36;;;;;;;161.98;63.70;;;1.00;99.90;;;;;;5030559;28;20456;-82
2022/03/24 03:07:03;;;;;;;164.43;64.50;;;1.00;99.90;;;;;;5035221;28;20061;-82
2022/03/24 03:09:30;;;;;;;171.57;68.00;;;1.00;99.90;;;;;;5050289;28;20077;-82
2022/03/24 03:11:56;;;;;;;183.30;66.50;;;1.00;99.90;;;;;;5050685;28;20084;-82
2022/03/24 03:14:22;;;;;;;169.05;65.40;;;1.00;99.90;;;;;;5038431;28;20045;-81
2022/03/24 03:16:48;;;;;;;179.70;66.22;;;1.00;99.90;;;;;;5030900;28;20092;-81
2022/03/24 03:19:17;;;;;;;173.95;65.07;;;1.00;99.90;;;;;;5030231;28;20076;-81
2022/03/24 03:21:44;;;;;;;169.98;65.13;;;1.00;99.90;;;;;;5031433;28;20042;-81
2022/03/24 03:24:10;;;;;;;180.50;66.82;;;1.10;99.90;;;;;;5041033;28;20073;-82
2022/03/24 03:26:36;;;;;;;176.30;66.05;;;1.10;99.90;;;;;;5051442;28;20069;-82
2022/03/24 03:29:03;;;;;;;172.73;65.57;;;1.10;99.90;;;;;;5050393;28;20075;-82
2022/03/24 03:31:29;;;;;;;169.90;65.13;;;1.10;99.90;;;;;;5052042;28;20102;-81
2022/03/24 03:33:55;;;;;;;172.13;64.57;;;1.10;99.90;;;;;;5050570;28;20037;-81
2022/03/24 03:36:22;;;;;;;163.93;62.97;;;1.10;99.90;;;;;;5050833;28;20128;-81
2022/03/24 03:38:49;;;;;;;176.13;64.60;;;1.00;99.90;;;;;;5049912;28;20053;-82
2022/03/24 03:41:16;;;;;;;164.82;62.28;;;1.00;99.90;;;;;;5066132;28;20424;-81
2022/03/24 03:43:42;;;;;;;173.95;64.57;;;1.00;99.90;;;;;;5044047;28;20064;-82
2022/03/24 03:46:08;;;;;;;164.57;60.83;;;0.90;99.90;;;;;;5031454;28;20118;-81
2022/03/24 03:48:36;;;;;;;162.60;60.63;;;0.90;99.90;;;;;;5029533;28;20053;-81
2022/03/24 03:51:02;;;;;;;153.32;58.83;;;0.90;99.90;;;;;;5030030;28;20037;-81
2022/03/24 03:53:32;;;;;;;160.18;60.50;;;0.90;99.90;;;;;;5032286;28;20037;-81
2022/03/24 03:55:58;;;;;;;170.18;61.10;;;0.90;99.90;;;;;;5048498;28;20041;-82
2022/03/24 03:58:23;;;;;;;165.35;63.17;;;0.80;99.90;;;;;;5049840;28;20049;-82
2022/03/24 04:00:58;;;;;;;161.00;59.83;;;0.70;99.90;;;;;;5049335;28;20036;-81
2022/03/24 04:03:29;;;;;;;166.40;60.95;;;0.70;99.90;;;;;;5049154;28;20037;-82
2022/03/24 04:05:59;;;;;;;183.95;62.05;;;0.60;99.90;;;;;;5046851;28;20041;-81
2022/03/24 04:08:27;;;;;;;173.10;62.85;;;0.60;99.90;;;;;;5028886;28;20069;-81
2022/03/24 04:10:53;;;;;;;169.65;62.50;;;0.50;99.90;;;;;;5028680;28;20034;-82
2022/03/24 04:13:19;;;;;;;176.13;58.97;;;0.50;99.90;;;;;;5028599;28;20064;-82
2022/03/24 04:15:46;;;;;;;173.75;60.30;;;0.40;99.90;;;;;;5029229;28;20069;-82
2022/03/24 04:18:12;;;;;;;163.75;60.60;;;0.40;99.90;;;;;;5029935;28;20046;-82
2022/03/24 04:20:39;;;;;;;177.57;62.05;;;0.40;99.90;;;;;;5029500;28;20049;-82
2022/03/24 04:23:05;;;;;;;179.95;64.53;;;0.50;99.90;;;;;;5029440;28;20125;-81
2022/03/24 04:25:32;;;;;;;170.43;62.75;;;0.50;99.90;;;;;;5028376;28;20058;-81
2022/03/24 04:27:58;;;;;;;171.00;60.78;;;0.40;99.90;;;;;;5044385;28;20124;-81
2022/03/24 04:30:26;;;;;;;175.77;61.47;;;0.40;99.90;;;;;;5049286;28;20048;-81
2022/03/24 04:32:52;;;;;;;178.35;62.75;;;0.40;99.90;;;;;;5049056;28;20075;-81
2022/03/24 04:35:18;;;;;;;171.73;61.58;;;0.40;99.90;;;;;;5047227;28;20050;-81
2022/03/24 04:37:44;;;;;;;172.13;60.55;;;0.30;99.90;;;;;;5037321;28;20038;-81
2022/03/24 04:40:11;;;;;;;175.18;63.25;;;0.20;99.90;;;;;;5026977;28;20377;-82
2022/03/24 04:42:37;;;;;;;173.75;63.10;;;0.20;99.90;;;;;;5025692;28;20114;-82
2022/03/24 04:45:03;;;;;;;186.77;61.85;;;0.20;99.90;;;;;;5027954;28;20527;-82
2022/03/24 04:47:32;;;;;;;195.63;64.97;;;0.20;99.90;;;;;;5035094;28;20084;-82
2022/03/24 04:49:58;;;;;;;187.10;64.55;;;0.30;99.90;;;;;;5048027;28;20076;-82
2022/03/24 04:52:24;;;;;;;204.63;70.10;;;0.30;99.90;;;;;;5030917;28;20096;-81
2022/03/24 04:54:50;;;;;;;206.82;72.22;;;0.40;99.90;;;;;;5030465;28;20041;-81
2022/03/24 04:57:15;;;;;;;207.32;72.03;;;0.70;99.90;;;;;;5038385;28;20041;-82
2022/03/24 04:59:42;;;;;;;218.50;74.68;;;0.40;99.90;;;;;;5047941;28;20124;-82
2022/03/24 05:02:09;;;;;;;228.70;74.55;;;0.90;99.90;;;;;;5047217;28;20076;-82
2022/03/24 05:04:35;;;;;;;209.13;72.07;;;0.30;99.90;;;;;;5047071;28;20056;-81
2022/03/24 05:07:01;;;;;;;211.63;72.57;;;0.30;99.90;;;;;;5044763;28;20059;-82
2022/03/24 05:09:26;;;;;;;225.10;76.03;;;0.20;99.90;;;;;;5049425;28;20041;-81
2022/03/24 05:11:52;;;;;;;236.73;77.22;;;0.20;99.90;;;;;;5053774;28;20041;-81
2022/03/24 05:14:17;;;;;;;215.90;75.28;;;0.10;99.90;;;;;;5056085;28;20092;-81
2022/03/24 05:16:43;;;;;;;210.57;72.10;;;0.10;99.90;;;;;;5054511;28;20044;-81
2022/03/24 05:19:08;;;;;;;197.40;71.57;;;0.00;99.90;;;;;;5054530;28;20060;-81
2022/03/24 05:21:34;;;;;;;215.95;73.55;;;0.00;99.90;;;;;;5034558;28;20045;-81
2022/03/24 05:24:00;;;;;;;217.50;75.95;;;0.00;99.90;;;;;;5023655;28;20562;-81
2022/03/24 05:26:26;;;;;;;220.35;74.88;;;0.00;99.90;;;;;;5025514;28;20447;-81
2022/03/24 05:28:53;;;;;;;257.25;85.57;;;0.10;99.90;;;;;;5043943;28;20049;-81
2022/03/24 05:31:20;;;;;;;238.30;82.65;;;0.00;99.90;;;;;;5043144;28;20042;-81
2022/03/24 05:33:47;;;;;;;256.63;81.35;;;0.00;99.90;;;;;;5043637;28;20061;-81
2022/03/24 05:36:13;;;;;;;246.38;82.97;;;0.00;99.90;;;;;;5042800;28;20551;-81
2022/03/24 05:38:38;;;;;;;248.50;82.85;;;0.10;99.90;;;;;;5036781;28;20072;-81
2022/03/24 05:41:05;;;;;;;274.38;87.38;;;0.20;99.90;;;;;;5032646;28;20041;-83
2022/03/24 05:43:31;;;;;;;288.95;88.32;;;0.30;99.90;;;;;;5032133;28;20108;-82
2022/03/24 05:45:57;;;;;;;279.13;87.13;;;0.40;99.90;;;;;;5032583;28;20132;-82
2022/03/24 05:48:23;;;;;;;264.58;88.90;;;0.40;99.90;;;;;;5015521;28;20078;-82
2022/03/24 05:50:49;;;;;;;250.95;80.05;;;0.40;99.90;;;;;;5032501;28;20073;-82
2022/03/24 05:53:15;;;;;;;261.35;82.97;;;0.40;99.90;;;;;;5028620;28;20053;-82
2022/03/24 05:55:41;;;;;;;262.65;85.18;;;0.40;99.90;;;;;;5031835;28;20049;-82
2022/03/24 05:58:07;;;;;;;265.77;86.78;;;0.40;99.90;;;;;;5031709;28;20061;-82
2022/03/24 06:00:37;;;;;;;272.52;86.18;;;0.50;99.90;;;;;;5039705;28;20038;-82
2022/03/24 06:03:04;;;;;;;260.60;85.80;;;0.60;99.90;;;;;;5031779;28;20045;-82
2022/03/24 06:05:30;;;;;;;276.92;88.10;;;0.70;99.90;;;;;;5022496;28;20060;-82
2022/03/24 06:07:58;;;;;;;267.98;86.25;;;0.70;99.90;;;;;;5022364;28;20042;-82
2022/03/24 06:10:24;;;;;;;271.60;90.22;;;0.80;99.90;;;;;;5021942;28;20049;-82
2022/03/24 06:12:50;;;;;;;274.40;91.15;;;0.90;99.90;;;;;;5021850;28;20034;-82
2022/03/24 06:15:16;;;;;;;279.02;91.80;;;1.10;99.90;;;;;;5022283;28;20416;-82
2022/03/24 06:17:42;;;;;;;271.77;91.18;;;1.20;99.90;;;;;;5022762;28;20046;-82
2022/03/24 06:20:08;;;;;;;280.35;94.60;;;1.30;99.90;;;;;;5026357;28;20060;-82
2022/03/24 06:22:40;;;;;;;280.42;92.63;;;1.40;99.90;;;;;;5025018;28;20128;-82
2022/03/24 06:25:06;;;;;;;277.15;94.45;;;1.80;99.90;;;;;;5023809;28;20550;-82
2022/03/24 06:27:31;;;;;;;283.27;96.35;;;2.20;99.90;;;;;;5023710;28;20041;-82
2022/03/24 06:29:57;;;;;;;279.10;89.72;;;2.40;99.90;;;;;;5023605;28;20042;-82
2022/03/24 06:32:23;;;;;;;268.48;90.60;;;2.50;99.90;;;;;;5021411;28;20046;-82
2022/03/24 06:34:50;;;;;;;267.90;92.20;;;2.50;99.90;;;;;;5022461;28;20068;-82
2022/03/24 06:37:16;;;;;;;275.25;96.25;;;2.50;99.90;;;;;;5022503;28;20050;-82
2022/03/24 06:39:42;;;;;;;266.75;93.95;;;2.50;99.90;;;;;;5022809;28;20038;-82
2022/03/24 06:42:07;;;;;;;246.93;91.82;;;2.50;99.90;;;;;;5022065;28;20084;-82
2022/03/24 06:44:35;;;;;;;258.95;91.78;;;2.60;99.90;;;;;;5023308;28;20050;-82
2022/03/24 06:47:01;;;;;;;263.90;91.32;;;2.60;99.90;;;;;;5022198;28;20085;-82
2022/03/24 06:49:26;;;;;;;260.00;89.88;;;2.70;99.90;;;;;;5023683;28;20034;-82
2022/03/24 06:51:52;;;;;;;255.02;91.72;;;2.80;99.90;;;;;;5026740;28;20603;-82
2022/03/24 06:54:18;;;;;;;217.65;87.97;;;3.30;99.90;;;;;;5026008;28;20115;-82
2022/03/24 06:56:44;;;;;;;229.02;93.45;;;3.10;99.90;;;;;;5028928;28;20488;-81
2022/03/24 06:59:10;;;;;;;242.82;94.50;;;3.20;99.90;;;;;;5032064;28;20511;-81
2022/03/24 07:01:42;;;;;;;230.05;95.55;;;3.40;99.90;;;;;;5031630;28;20057;-81
2022/03/24 07:04:08;;;;;;;232.45;93.63;;;3.70;99.90;;;;;;5030020;28;20044;-82
2022/03/24 07:06:34;;;;;;;230.73;99.38;;;4.00;99.90;;;;;;5030038;28;20611;-81
2022/03/24 07:09:00;;;;;;;254.55;99.53;;;4.30;99.90;;;;;;5029717;28;20042;-81
2022/03/24 07:11:25;;;;;;;268.58;108.82;;;4.50;99.90;;;;;;5029883;28;20038;-81
2022/03/24 07:13:51;;;;;;;265.33;105.63;;;4.80;99.90;;;;;;5029620;28;20107;-81
2022/03/24 07:16:17;;;;;;;259.60;110.97;;;5.00;99.90;;;;;;5028040;28;20060;-81
2022/03/24 07:18:43;;;;;;;252.70;107.97;;;5.30;99.90;;;;;;5037119;28;20073;-81
2022/03/24 07:21:10;;;;;;;224.00;100.45;;;5.50;99.90;;;;;;5037982;28;20076;-81
2022/03/24 07:23:36;;;;;;;199.10;98.30;;;5.70;99.90;;;;;;5037891;28;20085;-81
2022/03/24 07:26:02;;;;;;;187.35;94.43;;;5.90;99.90;;;;;;5036895;28;20018;-81
2022/03/24 07:28:28;;;;;;;171.30;91.50;;;6.00;99.90;;;;;;5035386;28;20313;-81
2022/03/24 07:30:53;;;;;;;172.18;86.93;;;6.20;99.90;;;;;;5027271;28;20037;-82
2022/03/24 07:33:20;;;;;;;159.50;81.75;;;6.30;99.90;;;;;;5034703;28;20045;-81
2022/03/24 07:35:47;;;;;;;146.90;82.05;;;6.40;99.90;;;;;;5035153;28;20037;-81
2022/03/24 07:38:13;;;;;;;114.35;68.25;;;6.60;99.90;;;;;;5039621;28;20061;-81
2022/03/24 07:40:39;;;;;;;115.65;67.22;;;6.70;99.90;;;;;;5039659;28;20014;-81
2022/03/24 07:43:05;;;;;;;109.95;58.78;;;6.90;99.90;;;;;;5034628;28;20087;-81
2022/03/24 07:45:37;;;;;;;99.70;57.85;;;7.00;99.90;;;;;;5034221;28;20118;-81
2022/03/24 07:48:17;;;;;;;101.03;55.97;;;7.00;99.90;;;;;;5031227;28;20042;-82
2022/03/24 07:50:46;;;;;;;93.13;55.63;;;7.20;99.90;;;;;;5030770;28;20042;-81
2022/03/24 07:53:11;;;;;;;85.80;51.70;;;7.40;99.90;;;;;;5030309;28;20057;-81
2022/03/24 07:55:38;;;;;;;91.88;52.58;;;7.50;99.90;;;;;;5029599;28;20404;-81
2022/03/24 07:58:05;;;;;;;80.07;48.42;;;7.70;99.90;;;;;;5025932;28;20048;-81
2022/03/24 08:00:31;;;;;;;84.45;51.28;;;7.80;99.90;;;;;;5044044;28;20100;-82
2022/03/24 08:02:57;;;;;;;80.70;48.47;;;8.00;99.90;;;;;;5046752;28;20129;-81
2022/03/24 08:05:22;;;;;;;83.80;49.47;;;8.20;99.90;;;;;;5027150;28;20073;-82
2022/03/24 08:07:48;;;;;;;77.40;47.00;;;8.40;99.90;;;;;;5025061;28;20038;-82
2022/03/24 08:10:14;;;;;;;82.85;46.60;;;8.50;99.90;;;;;;5023396;28;20045;-82
2022/03/24 08:12:39;;;;;;;71.80;43.13;;;8.60;99.90;;;;;;5024978;28;20128;-81
2022/03/24 08:15:05;;;;;;;73.82;44.40;;;8.70;99.90;;;;;;5024074;28;20042;-82
2022/03/24 08:17:30;;;;;;;78.60;43.05;;;8.80;99.90;;;;;;5024718;28;20074;-82
2022/03/24 08:19:56;;;;;;;68.72;40.60;;;9.00;99.90;;;;;;5023320;28;20045;-82
2022/03/24 08:22:21;;;;;;;60.95;37.25;;;9.10;99.90;;;;;;5023455;28;20042;-82
2022/03/24 08:24:47;;;;;;;63.85;39.58;;;9.30;99.90;;;;;;5024001;28;20057;-81
2022/03/24 08:27:12;;;;;;;64.03;40.10;;;9.50;99.90;;;;;;5025176;28;20053;-82
2022/03/24 08:29:40;;;;;;;63.15;34.10;;;9.70;99.90;;;;;;5026195;28;20041;-82
2022/03/24 08:32:06;;;;;;;65.68;36.67;;;9.90;99.90;;;;;;5025068;28;20092;-81
2022/03/24 08:34:31;;;;;;;56.17;33.13;;;10.10;99.90;;;;;;5025366;28;20106;-81
2022/03/24 08:36:57;;;;;;;62.08;37.25;;;10.20;99.90;;;;;;5023819;28;20050;-82
2022/03/24 08:39:22;;;;;;;65.28;39.88;;;10.40;99.90;;;;;;5023597;28;20444;-82
2022/03/24 08:41:48;;;;;;;61.75;38.50;;;10.50;99.90;;;;;;5025465;28;20049;-82
2022/03/24 08:44:13;;;;;;;69.57;39.33;;;10.70;99.90;;;;;;5024602;28;20053;-82
2022/03/24 08:46:39;;;;;;;59.65;37.65;;;10.80;99.90;;;;;;5023679;28;20041;-82
2022/03/24 08:49:05;;;;;;;57.75;35.95;;;11.10;99.90;;;;;;5025309;28;20041;-82
2022/03/24 08:51:30;;;;;;;55.30;36.42;;;11.20;99.90;;;;;;5024288;28;20049;-82
2022/03/24 08:53:56;;;;;;;58.60;32.25;;;11.60;99.90;;;;;;5021842;28;20496;-81
2022/03/24 08:56:22;;;;;;;55.78;30.48;;;12.00;99.90;;;;;;5004599;28;20113;-82
2022/03/24 08:58:48;;;;;;;57.97;34.20;;;12.70;99.90;;;;;;5004640;28;20555;-81
2022/03/24 09:01:13;;;;;;;55.40;32.40;;;13.20;99.90;;;;;;5011619;28;20045;-81
2022/03/24 09:03:39;;;;;;;50.80;31.20;;;13.70;99.90;;;;;;5022359;28;20111;-82
2022/03/24 09:06:05;;;;;;;53.28;30.02;;;13.90;97.20;;;;;;5023094;28;20042;-82
2022/03/24 09:08:30;;;;;;;46.70;31.35;;;14.30;94.20;;;;;;5022317;28;20042;-82
2022/03/24 09:10:56;;;;;;;53.78;35.15;;;14.60;92.00;;;;;;5020195;28;20038;-82
2022/03/24 09:13:22;;;;;;;48.53;31.70;;;15.00;99.00;;;;;;5023505;28;20050;-82
2022/03/24 09:15:48;;;;;;;48.70;31.00;;;15.30;96.70;;;;;;5016391;28;20064;-82
2022/03/24 09:18:14;;;;;;;46.22;27.67;;;15.60;91.20;;;;;;5036195;28;20149;-82
2022/03/24 09:20:39;;;;;;;48.95;31.25;;;15.50;74.20;;;;;;5036228;28;20056;-82
2022/03/24 09:23:05;;;;;;;49.47;30.52;;;15.50;76.10;;;;;;5023628;28;20191;-83
2022/03/24 09:25:33;;;;;;;46.17;30.98;;;15.70;75.10;;;;;;5022252;28;20575;-82
2022/03/24 09:27:58;;;;;;;49.28;29.58;;;15.60;75.90;;;;;;5024837;28;20057;-83
2022/03/24 09:30:24;;;;;;;51.63;30.60;;;15.80;69.60;;;;;;5025489;28;20046;-83
2022/03/24 09:32:51;;;;;;;50.08;30.05;;;15.60;76.50;;;;;;5024517;28;20050;-83
2022/03/24 09:35:16;;;;;;;48.35;31.48;;;15.80;81.70;;;;;;5024195;28;20140;-82
2022/03/24 09:37:42;;;;;;;55.47;33.22;;;16.00;74.50;;;;;;5027142;28;20053;-83
2022/03/24 09:40:09;;;;;;;50.95;33.22;;;15.90;72.20;;;;;;5027084;28;20061;-83
2022/03/24 09:42:35;;;;;;;47.15;30.48;;;15.80;75.40;;;;;;5013872;28;20492;-83
2022/03/24 09:45:02;;;;;;;52.80;34.58;;;15.90;79.50;;;;;;5030038;28;20301;-83
2022/03/24 09:47:29;;;;;;;52.25;31.83;;;15.70;78.50;;;;;;5029936;28;20038;-83
2022/03/24 09:49:56;;;;;;;51.92;33.25;;;15.90;83.30;;;;;;5031351;28;20050;-83
2022/03/24 09:52:22;;;;;;;53.72;32.47;;;15.80;86.90;;;;;;5031348;28;20033;-83
2022/03/24 09:54:48;;;;;;;49.00;33.13;;;15.60;90.10;;;;;;5034460;28;20022;-83
2022/03/24 09:57:14;;;;;;;47.58;32.28;;;15.60;90.60;;;;;;5034075;28;20077;-83
2022/03/24 09:59:42;;;;;;;50.88;30.52;;;15.70;86.10;;;;;;5039828;28;20041;-82
2022/03/24 10:02:08;;;;;;;48.72;30.17;;;15.80;88.50;;;;;;5023695;28;20044;-82
2022/03/24 10:04:57;;;;;;;45.83;31.08;;;15.80;89.30;;;;;;5020297;28;20057;-82
2022/03/24 10:07:25;;;;;;;49.42;30.80;;;15.70;79.50;;;;;;5020067;28;20049;-83
2022/03/24 10:09:53;;;;;;;58.30;32.78;;;16.00;81.70;;;;;;5020269;28;20049;-82
2022/03/24 10:12:37;;;;;;;50.55;32.50;;;16.00;75.40;;;;;;5020004;28;20030;-82
2022/03/24 10:15:08;;;;;;;48.30;30.02;;;15.80;74.70;;;;;;5020070;28;20042;-82
2022/03/24 10:17:37;;;;;;;55.08;30.77;;;15.90;70.60;;;;;;5020014;28;20664;-82
2022/03/24 10:20:17;;;;;;;47.80;29.23;;;16.10;75.10;;;;;;5019683;28;20118;-82
2022/03/24 10:23:00;;;;;;;49.85;28.17;;;16.10;64.20;;;;;;5019327;28;20089;-82
2022/03/24 10:25:28;;;;;;;48.55;31.17;;;16.10;62.90;;;;;;5035331;28;20026;-82
2022/03/24 10:28:10;;;;;;;50.25;29.10;;;16.10;55.90;;;;;;5019873;28;20042;-82
2022/03/24 10:30:52;;;;;;;49.35;30.02;;;16.10;54.10;;;;;;5019818;28;20030;-82
2022/03/24 10:33:31;;;;;;;61.92;33.67;;;16.10;50.60;;;;;;5019349;28;20056;-82
2022/03/24 10:36:18;;;;;;;47.47;30.65;;;16.20;56.30;;;;;;5019362;28;20122;-82
2022/03/24 10:38:50;;;;;;;45.75;31.33;;;16.20;54.70;;;;;;5019518;28;20038;-82
2022/03/24 10:41:22;;;;;;;47.75;29.52;;;16.30;52.90;;;;;;5018828;28;20046;-83
2022/03/24 10:43:50;;;;;;;49.72;31.10;;;16.50;51.40;;;;;;5017451;28;20057;-83
2022/03/24 10:46:23;;;;;;;58.35;32.92;;;16.60;50.20;;;;;;5020107;28;20030;-83
2022/03/24 10:48:50;;;;;;;48.30;30.63;;;16.80;48.60;;;;;;5020349;28;20022;-83
2022/03/24 10:51:26;;;;;;;53.70;33.13;;;16.90;45.70;;;;;;5020196;28;20116;-83
2022/03/24 10:53:53;;;;;;;;;;;17.10;45.00;;;;;;5020759;28;20113;-82
2022/03/24 10:56:27;;;;;;;49.92;29.85;;;17.10;43.50;;;;;;5012412;28;19921;-82
2022/03/24 10:59:01;;;;;;;45.92;28.60;;;17.40;44.40;;;;;;5001967;28;20520;-81
2022/03/24 11:01:27;;;;;;;49.97;30.15;;;17.40;44.50;;;;;;5002091;28;20065;-81
2022/03/24 11:03:54;;;;;;;45.88;27.27;;;17.40;38.20;;;;;;5000892;28;20046;-81
2022/03/24 11:06:27;;;;;;;42.45;29.38;;;17.40;35.70;;;;;;5000954;28;20114;-82
2022/03/24 11:08:58;;;;;;;48.35;28.77;;;17.40;36.70;;;;;;5000714;28;20050;-81
2022/03/24 11:11:27;;;;;;;52.25;28.88;;;17.50;37.10;;;;;;4998901;28;20049;-82
2022/03/24 11:13:54;;;;;;;41.45;28.63;;;17.70;38.70;;;;;;4996163;28;20420;-82
2022/03/24 11:16:40;;;;;;;44.53;27.65;;;17.70;35.10;;;;;;4999549;28;20283;-82
2022/03/24 11:19:23;;;;;;;43.45;28.80;;;17.80;38.10;;;;;;4998949;28;20054;-82
2022/03/24 11:21:57;;;;;;;43.40;26.25;;;17.70;40.10;;;;;;5010529;28;20031;-82
2022/03/24 11:24:23;;;;;;;46.83;27.77;;;18.00;32.00;;;;;;5007577;28;20061;-82
2022/03/24 11:26:50;;;;;;;46.28;29.42;;;18.10;34.90;;;;;;4998837;28;20081;-82
2022/03/24 11:29:16;;;;;;;49.45;32.00;;;18.00;34.30;;;;;;4995982;28;20050;-81
2022/03/24 11:31:45;;;;;;;43.58;26.13;;;18.00;35.80;;;;;;4997427;28;20085;-82
2022/03/24 11:34:11;;;;;;;50.40;32.08;;;18.20;30.50;;;;;;4997691;28;20532;-82
2022/03/24 11:36:36;;;;;;;47.85;30.52;;;18.30;32.40;;;;;;4998902;28;20072;-82
2022/03/24 11:39:05;;;;;;;42.97;26.08;;;18.30;33.00;;;;;;4998965;28;20101;-82
2022/03/24 11:41:52;;;;;;;68.53;30.15;;;18.30;27.80;;;;;;4998619;28;20046;-82
2022/03/24 11:44:36;;;;;;;44.22;26.85;;;18.40;30.70;;;;;;4996985;28;20058;-82
2022/03/24 11:47:15;;;;;;;41.63;27.65;;;18.60;29.00;;;;;;4999001;28;20043;-82
2022/03/24 11:49:41;;;;;;;45.17;26.80;;;18.90;28.00;;;;;;5004279;28;20046;-82
2022/03/24 11:52:07;;;;;;;42.03;24.67;;;19.00;28.10;;;;;;5001329;28;20046;-82
2022/03/24 11:54:36;;;;;;;46.63;27.23;;;19.00;25.60;;;;;;5004236;28;20058;-82
2022/03/24 11:57:33;;;;;;;42.53;25.17;;;19.40;27.00;;;;;;5001521;28;20047;-82
2022/03/24 12:00:14;;;;;;;49.85;28.73;;;19.40;27.00;;;;;;4999415;28;20053;-82
2022/03/24 12:02:40;;;;;;;47.15;29.17;;;19.60;27.80;;;;;;4997466;28;20189;-82
2022/03/24 12:05:07;;;;;;;44.22;27.80;;;19.50;25.80;;;;;;4997370;28;20039;-82
2022/03/24 12:07:32;;;;;;;43.70;29.98;;;19.40;28.80;;;;;;4996980;28;20564;-82
2022/03/24 12:10:02;;;;;;;46.13;27.05;;;19.20;28.50;;;;;;4996369;28;20050;-82
2022/03/24 12:12:29;;;;;;;42.78;27.38;;;19.50;29.50;;;;;;4996313;28;20073;-82
2022/03/24 12:14:54;;;;;;;39.75;29.10;;;19.70;28.10;;;;;;4996326;28;20536;-82
2022/03/24 12:17:30;;;;;;;36.15;27.13;;;19.40;27.20;;;;;;4996410;28;20038;-82
2022/03/24 12:19:58;;;;;;;48.38;27.17;;;19.60;28.30;;;;;;4997028;28;20512;-82
2022/03/24 12:22:28;;;;;;;40.03;25.90;;;19.60;24.90;;;;;;4997610;28;20042;-83
2022/03/24 12:24:59;;;;;;;40.13;23.73;;;19.80;25.10;;;;;;4996755;28;20146;-83
2022/03/24 12:27:32;;;;;;;40.17;24.60;;;19.50;23.90;;;;;;4996283;28;20056;-83
2022/03/24 12:30:15;;;;;;;43.90;25.02;;;19.90;23.40;;;;;;4996510;28;20041;-83